Time;durP1;ratioP1;P1;durP2;ratioP2;P2;SDS_P1;SDS_P2;PMS_P1;PMS_P2;Temp;Humidity;BMP_temperature;BMP_pressure;BME280_temperature;BME280_humidity;BME280_pressure;Samples;Min_cycle;Max_cycle;Signal;HPM_P1;HPM_P2
2021/06/25 00:02:16;;;;;;;3.15;2.40;;;;;;;;;;5032352;28;20072;-89
2021/06/25 00:05:02;;;;;;;3.53;2.28;;;;;;;;;;5033434;28;20032;-89
2021/06/25 00:07:47;;;;;;;2.95;2.45;;;;;;;;;;5031358;28;20091;-89
2021/06/25 00:10:33;;;;;;;2.83;2.45;;;;;;;;;;5032142;28;20024;-89
2021/06/25 00:13:18;;;;;;;4.15;2.67;;;;;;;;;;5035464;28;20032;-89
2021/06/25 00:16:03;;;;;;;4.03;2.65;;;;;;;;;;5037922;28;20170;-89
2021/06/25 00:18:49;;;;;;;2.67;2.17;;;;;;;;;;5016733;28;20025;-89
2021/06/25 00:21:34;;;;;;;3.00;2.60;;;;;;;;;;5041786;28;20025;-88
2021/06/25 00:24:20;;;;;;;3.47;3.10;;;;;;;;;;5022614;28;20028;-90
2021/06/25 00:27:05;;;;;;;3.65;2.35;;;;;;;;;;5034812;28;20125;-89
2021/06/25 00:29:51;;;;;;;2.85;1.98;;;;;;;;;;5040317;28;20356;-89
2021/06/25 00:32:36;;;;;;;2.42;2.22;;;;;;;;;;5031487;28;20105;-89
2021/06/25 00:35:21;;;;;;;3.80;2.30;;;;;;;;;;5034721;28;20029;-90
2021/06/25 00:38:07;;;;;;;2.42;2.15;;;;;;;;;;5031181;28;20037;-89
2021/06/25 00:40:52;;;;;;;2.10;1.90;;;;;;;;;;5034437;28;20033;-90
2021/06/25 00:43:38;;;;;;;3.55;1.92;;;;;;;;;;5034080;28;20025;-90
2021/06/25 00:46:23;;;;;;;4.10;1.77;;;;;;;;;;5040988;28;20017;-90
2021/06/25 00:49:09;;;;;;;1.75;1.63;;;;;;;;;;5034860;28;20033;-89
2021/06/25 00:51:54;;;;;;;2.20;1.75;;;;;;;;;;5030728;28;20510;-88
2021/06/25 00:54:40;;;;;;;1.70;1.60;;;;;;;;;;5032624;28;20029;-89
2021/06/25 00:57:25;;;;;;;2.08;1.88;;;;;;;;;;5038550;28;20033;-89
2021/06/25 01:00:11;;;;;;;2.85;1.48;;;;;;;;;;5038816;28;20033;-88
2021/06/25 01:02:56;;;;;;;2.10;1.70;;;;;;;;;;5038752;28;20049;-88
2021/06/25 01:05:42;;;;;;;3.35;1.45;;;;;;;;;;5036353;28;20025;-90
2021/06/25 01:08:27;;;;;;;2.38;1.55;;;;;;;;;;5030231;28;20246;-89
2021/06/25 01:11:13;;;;;;;2.38;1.95;;;;;;;;;;5031744;28;20021;-91
2021/06/25 01:13:59;;;;;;;2.50;1.50;;;;;;;;;;5021072;28;20601;-88
2021/06/25 01:16:44;;;;;;;2.50;1.33;;;;;;;;;;5033924;28;20314;-89
2021/06/25 01:19:29;;;;;;;2.65;1.85;;;;;;;;;;5013391;28;20025;-89
2021/06/25 01:22:21;;;;;;;2.35;1.50;;;;;;;;;;5029979;28;20024;-90
2021/06/25 01:25:26;;;;;;;4.57;1.73;;;;;;;;;;5018083;28;20032;-89
2021/06/25 01:28:12;;;;;;;3.50;1.75;;;;;;;;;;5032686;28;20020;-90
2021/06/25 01:30:57;;;;;;;2.05;1.75;;;;;;;;;;5025222;28;20894;-89
2021/06/25 01:33:43;;;;;;;1.85;1.38;;;;;;;;;;5017988;28;20107;-90
2021/06/25 01:36:30;;;;;;;2.35;1.58;;;;;;;;;;5043554;28;20025;-89
2021/06/25 01:39:15;;;;;;;7.03;1.95;;;;;;;;;;5041131;28;20033;-89
2021/06/25 01:42:00;;;;;;;2.22;1.27;;;;;;;;;;5052754;28;20557;-90
2021/06/25 01:44:46;;;;;;;5.03;1.65;;;;;;;;;;5041882;28;20017;-89
2021/06/25 01:47:32;;;;;;;1.42;1.33;;;;;;;;;;5052721;28;20052;-90
2021/06/25 01:50:22;;;;;;;3.95;1.65;;;;;;;;;;5049319;28;20017;-86
2021/06/25 01:53:11;;;;;;;1.33;1.20;;;;;;;;;;5031452;28;20116;-89
2021/06/25 01:56:00;;;;;;;3.57;1.83;;;;;;;;;;5028002;28;20592;-89
2021/06/25 01:58:45;;;;;;;3.35;1.70;;;;;;;;;;5029657;28;20032;-88
2021/06/25 02:01:30;;;;;;;3.30;1.23;;;;;;;;;;5029937;28;20106;-89
2021/06/25 02:04:16;;;;;;;5.38;1.40;;;;;;;;;;5034016;28;20033;-88
2021/06/25 02:07:01;;;;;;;3.33;1.85;;;;;;;;;;5031698;28;20636;-87
2021/06/25 02:09:47;;;;;;;4.07;1.13;;;;;;;;;;5030248;28;20159;-88
2021/06/25 02:12:32;;;;;;;2.13;1.00;;;;;;;;;;5032380;28;20037;-90
2021/06/25 02:15:17;;;;;;;2.38;1.30;;;;;;;;;;5035712;28;20028;-89
2021/06/25 02:18:03;;;;;;;3.28;1.10;;;;;;;;;;5031581;28;20017;-88
2021/06/25 02:20:48;;;;;;;1.75;1.05;;;;;;;;;;5023924;28;20065;-89
2021/06/25 02:23:33;;;;;;;1.90;1.13;;;;;;;;;;5034635;28;20489;-89
2021/06/25 02:26:19;;;;;;;3.78;1.40;;;;;;;;;;5034376;28;20105;-89
2021/06/25 02:29:04;;;;;;;3.20;1.35;;;;;;;;;;5028554;28;20028;-89
2021/06/25 02:31:49;;;;;;;1.88;1.17;;;;;;;;;;5032601;28;20057;-89
2021/06/25 02:34:34;;;;;;;3.08;1.33;;;;;;;;;;5029979;28;20017;-88
2021/06/25 02:37:20;;;;;;;1.63;1.10;;;;;;;;;;5034718;28;20029;-89
2021/06/25 02:40:06;;;;;;;1.40;1.23;;;;;;;;;;5022812;28;20017;-89
2021/06/25 02:42:51;;;;;;;2.80;1.20;;;;;;;;;;5031912;28;20028;-89
2021/06/25 02:45:37;;;;;;;2.42;1.30;;;;;;;;;;5034186;28;20029;-88
2021/06/25 02:48:22;;;;;;;2.35;1.25;;;;;;;;;;5029904;28;20526;-89
2021/06/25 02:51:08;;;;;;;6.38;1.10;;;;;;;;;;5029503;28;20025;-88
2021/06/25 02:53:53;;;;;;;1.65;1.00;;;;;;;;;;5032499;28;20402;-88
2021/06/25 02:56:38;;;;;;;1.35;0.98;;;;;;;;;;5014598;28;20053;-88
2021/06/25 02:59:23;;;;;;;1.75;1.17;;;;;;;;;;5030981;28;20104;-88
2021/06/25 03:02:09;;;;;;;2.13;1.20;;;;;;;;;;5036652;28;20021;-88
2021/06/25 03:04:54;;;;;;;1.83;1.10;;;;;;;;;;5028444;28;20025;-89
2021/06/25 03:07:40;;;;;;;3.67;1.10;;;;;;;;;;5033525;28;20069;-89
2021/06/25 03:10:25;;;;;;;3.17;1.17;;;;;;;;;;5028389;28;20029;-88
2021/06/25 03:13:13;;;;;;;1.90;1.17;;;;;;;;;;5019726;28;20031;-89
2021/06/25 03:15:58;;;;;;;5.32;1.63;;;;;;;;;;5036635;28;20041;-89
2021/06/25 03:18:44;;;;;;;2.42;1.52;;;;;;;;;;5032000;28;20540;-88
2021/06/25 03:21:29;;;;;;;3.70;1.73;;;;;;;;;;5016454;28;20027;-89
2021/06/25 03:24:14;;;;;;;1.73;1.63;;;;;;;;;;5027222;28;20462;-90
2021/06/25 03:27:00;;;;;;;3.70;1.65;;;;;;;;;;5036565;28;20382;-91
2021/06/25 03:29:45;;;;;;;2.42;1.60;;;;;;;;;;5025113;28;20040;-88
2021/06/25 03:32:30;;;;;;;2.55;1.67;;;;;;;;;;5033086;28;20029;-87
2021/06/25 03:35:16;;;;;;;2.53;1.30;;;;;;;;;;5030752;28;20028;-89
2021/06/25 03:38:01;;;;;;;6.20;1.98;;;;;;;;;;5034591;28;20450;-89
2021/06/25 03:40:47;;;;;;;2.17;1.52;;;;;;;;;;5027862;28;20036;-88
2021/06/25 03:43:32;;;;;;;1.60;1.50;;;;;;;;;;5036794;28;20061;-87
2021/06/25 03:46:19;;;;;;;1.40;1.30;;;;;;;;;;5028831;28;20084;-90
2021/06/25 03:49:05;;;;;;;1.80;1.45;;;;;;;;;;5038603;28;20021;-89
2021/06/25 03:51:50;;;;;;;1.55;1.40;;;;;;;;;;5031776;28;20257;-88
2021/06/25 03:54:36;;;;;;;1.30;1.20;;;;;;;;;;5032404;28;20453;-88
2021/06/25 03:57:21;;;;;;;2.17;1.50;;;;;;;;;;5023883;28;20024;-88
2021/06/25 04:00:07;;;;;;;2.85;1.30;;;;;;;;;;5030474;28;20112;-91
2021/06/25 04:02:55;;;;;;;1.85;1.60;;;;;;;;;;5041908;28;20029;-91
2021/06/25 04:05:48;;;;;;;4.50;1.73;;;;;;;;;;5037486;28;20108;-91
2021/06/25 04:08:34;;;;;;;2.90;1.73;;;;;;;;;;5042233;28;20091;-88
2021/06/25 04:11:19;;;;;;;4.28;1.40;;;;;;;;;;5017388;28;20097;-91
2021/06/25 04:14:05;;;;;;;2.03;1.48;;;;;;;;;;5034502;28;20025;-89
2021/06/25 04:16:50;;;;;;;4.03;1.30;;;;;;;;;;5028926;28;20033;-89
2021/06/25 04:19:36;;;;;;;2.72;1.65;;;;;;;;;;5038224;28;20039;-90
2021/06/25 04:22:21;;;;;;;2.00;1.13;;;;;;;;;;5030427;28;20017;-91
2021/06/25 04:25:06;;;;;;;1.30;1.20;;;;;;;;;;5036333;28;20139;-91
2021/06/25 04:27:53;;;;;;;1.40;1.30;;;;;;;;;;5028817;28;20120;-89
2021/06/25 04:30:41;;;;;;;2.00;1.40;;;;;;;;;;5029443;28;20387;-87
2021/06/25 04:33:27;;;;;;;3.95;1.63;;;;;;;;;;5029345;28;20077;-87
2021/06/25 04:36:12;;;;;;;4.97;1.55;;;;;;;;;;5024703;28;20026;-88
2021/06/25 04:38:57;;;;;;;3.22;1.38;;;;;;;;;;5027905;28;20067;-89
2021/06/25 04:41:43;;;;;;;3.25;1.63;;;;;;;;;;5015135;28;20021;-89
2021/06/25 04:44:28;;;;;;;1.90;1.25;;;;;;;;;;5037759;28;20063;-89
2021/06/25 04:47:13;;;;;;;1.58;1.30;;;;;;;;;;5028773;28;20515;-89
2021/06/25 04:49:58;;;;;;;2.58;1.13;;;;;;;;;;5038442;28;20078;-89
2021/06/25 04:52:44;;;;;;;4.00;1.42;;;;;;;;;;5022602;28;20030;-89
2021/06/25 04:55:29;;;;;;;1.83;1.33;;;;;;;;;;5022982;28;20035;-90
2021/06/25 04:58:16;;;;;;;2.83;1.55;;;;;;;;;;5023874;28;20088;-89
2021/06/25 05:01:02;;;;;;;2.97;1.63;;;;;;;;;;5030177;28;20043;-89
2021/06/25 05:03:47;;;;;;;4.75;1.50;;;;;;;;;;5031691;28;20028;-87
2021/06/25 05:06:32;;;;;;;4.85;1.63;;;;;;;;;;5032453;28;20099;-88
2021/06/25 05:09:18;;;;;;;3.10;1.20;;;;;;;;;;5027866;28;20111;-89
2021/06/25 05:12:03;;;;;;;2.00;1.20;;;;;;;;;;5036049;28;20062;-90
2021/06/25 05:14:48;;;;;;;2.50;1.50;;;;;;;;;;5038011;28;20466;-90
2021/06/25 05:17:34;;;;;;;2.10;1.38;;;;;;;;;;5034759;28;20634;-90
2021/06/25 05:20:20;;;;;;;2.08;1.40;;;;;;;;;;5033809;28;20070;-89
2021/06/25 05:23:05;;;;;;;1.90;1.63;;;;;;;;;;5034136;28;20427;-90
2021/06/25 05:25:50;;;;;;;1.92;1.10;;;;;;;;;;5034397;28;20052;-89
2021/06/25 05:28:36;;;;;;;4.60;1.80;;;;;;;;;;5019160;28;20038;-90
2021/06/25 05:31:23;;;;;;;3.33;1.30;;;;;;;;;;5017982;28;20027;-92
2021/06/25 05:34:09;;;;;;;3.38;1.42;;;;;;;;;;5025008;28;20029;-89
2021/06/25 05:36:54;;;;;;;1.67;1.58;;;;;;;;;;5021966;28;20026;-82
2021/06/25 05:39:40;;;;;;;2.35;1.42;;;;;;;;;;5030888;28;20036;-91
2021/06/25 05:42:25;;;;;;;2.58;1.67;;;;;;;;;;5032343;28;20031;-89
2021/06/25 05:45:40;;;;;;;1.60;1.20;;;;;;;;;;5030237;28;20645;-89
2021/06/25 05:48:26;;;;;;;1.52;1.23;;;;;;;;;;5038243;28;20025;-89
2021/06/25 05:51:18;;;;;;;1.58;1.20;;;;;;;;;;5029305;28;20025;-89
2021/06/25 05:54:06;;;;;;;1.75;1.10;;;;;;;;;;5015357;28;20530;-88
2021/06/25 05:56:52;;;;;;;2.95;1.40;;;;;;;;;;5032711;28;20107;-89
2021/06/25 05:59:38;;;;;;;3.78;1.33;;;;;;;;;;5026191;28;20032;-88
2021/06/25 06:02:23;;;;;;;2.53;1.23;;;;;;;;;;5034690;28;20021;-87
2021/06/25 06:08:49;;;;;;;2.60;1.20;;;;;;;;;;5013565;28;20041;-90
2021/06/25 06:11:37;;;;;;;7.97;5.38;;;;;;;;;;5010706;28;20041;-87
2021/06/25 06:14:22;;;;;;;3.90;1.40;;;;;;;;;;5010668;28;20017;-86
2021/06/25 06:17:08;;;;;;;1.58;1.40;;;;;;;;;;5010337;28;20402;-85
2021/06/25 06:19:54;;;;;;;1.27;1.10;;;;;;;;;;5012119;28;20064;-85
2021/06/25 06:32:06;;;;;;;3.63;1.45;;;;;;;;;;5034200;28;20521;-84
2021/06/25 06:34:51;;;;;;;2.35;1.00;;;;;;;;;;5009951;28;20010;-82
2021/06/25 06:37:37;;;;;;;2.20;1.35;;;;;;;;;;5011527;28;20051;-88
2021/06/25 06:40:22;;;;;;;1.45;1.20;;;;;;;;;;5011903;28;20083;-86
2021/06/25 06:43:07;;;;;;;2.05;1.00;;;;;;;;;;5011707;28;20090;-87
2021/06/25 06:45:52;;;;;;;2.08;1.10;;;;;;;;;;5039648;28;20387;-84
2021/06/25 06:48:38;;;;;;;2.88;1.20;;;;;;;;;;5036272;28;20029;-85
2021/06/25 06:51:24;;;;;;;3.17;1.27;;;;;;;;;;5035614;28;20091;-85
2021/06/25 06:54:10;;;;;;;4.65;2.40;;;;;;;;;;5022967;28;20079;-86
2021/06/25 06:56:58;;;;;;;7.25;3.80;;;;;;;;;;5008752;28;20448;-85
2021/06/25 06:59:43;;;;;;;1.70;1.30;;;;;;;;;;5015672;28;20133;-84
2021/06/25 07:02:28;;;;;;;2.63;1.38;;;;;;;;;;5012664;28;20029;-83
2021/06/25 07:05:15;;;;;;;4.25;1.35;;;;;;;;;;5012880;23;20049;-83
2021/06/25 07:08:00;;;;;;;3.80;1.25;;;;;;;;;;5008994;28;20094;-82
2021/06/25 07:10:45;;;;;;;3.10;1.30;;;;;;;;;;5006769;28;20052;-82
2021/06/25 07:13:30;;;;;;;2.10;1.50;;;;;;;;;;5007570;28;20037;-84
2021/06/25 07:16:16;;;;;;;5.45;1.60;;;;;;;;;;5012031;28;20029;-86
2021/06/25 07:19:01;;;;;;;2.80;1.40;;;;;;;;;;4998283;28;20014;-85
2021/06/25 07:21:46;;;;;;;3.28;1.58;;;;;;;;;;5008512;28;20048;-83
2021/06/25 07:24:31;;;;;;;4.43;1.30;;;;;;;;;;5008712;28;20027;-83
2021/06/25 07:27:16;;;;;;;3.45;1.85;;;;;;;;;;5004612;28;20030;-82
2021/06/25 07:30:05;;;;;;;2.95;1.55;;;;;;;;;;5007951;28;20180;-83
2021/06/25 07:32:50;;;;;;;3.08;1.45;;;;;;;;;;4998728;28;20243;-84
2021/06/25 07:35:36;;;;;;;2.92;1.42;;;;;;;;;;5008691;28;20080;-85
2021/06/25 07:38:21;;;;;;;6.72;1.52;;;;;;;;;;5007634;28;20057;-84
2021/06/25 07:41:06;;;;;;;5.13;1.77;;;;;;;;;;5001846;28;20060;-85
2021/06/25 07:43:51;;;;;;;2.78;1.90;;;;;;;;;;5007045;28;20112;-84
2021/06/25 07:46:36;;;;;;;3.13;2.00;;;;;;;;;;5006775;28;20061;-85
2021/06/25 07:49:22;;;;;;;11.65;9.02;;;;;;;;;;4999118;28;20391;-84
2021/06/25 07:52:07;;;;;;;5.57;3.00;;;;;;;;;;5004264;28;20364;-84
2021/06/25 07:54:52;;;;;;;4.57;2.28;;;;;;;;;;5007419;28;20533;-84
2021/06/25 07:57:38;;;;;;;2.22;1.90;;;;;;;;;;5003869;28;20037;-86
2021/06/25 08:00:23;;;;;;;4.45;2.42;;;;;;;;;;5007290;28;20164;-86
2021/06/25 08:03:08;;;;;;;3.80;2.50;;;;;;;;;;5007697;28;20099;-83
2021/06/25 08:05:54;;;;;;;4.78;2.80;;;;;;;;;;4978540;28;20035;-84
2021/06/25 08:08:40;;;;;;;4.65;2.78;;;;;;;;;;4955658;28;20221;-84
2021/06/25 08:11:25;;;;;;;6.53;2.75;;;;;;;;;;4968997;28;20579;-84
2021/06/25 08:14:10;;;;;;;7.10;2.80;;;;;;;;;;4966760;28;20097;-83
2021/06/25 08:16:55;;;;;;;2.72;2.45;;;;;;;;;;4958866;28;20088;-84
2021/06/25 08:19:41;;;;;;;6.25;3.30;;;;;;;;;;4974351;28;20500;-82
2021/06/25 08:22:27;;;;;;;4.88;3.10;;;;;;;;;;4966298;28;20041;-84
2021/06/25 08:25:18;;;;;;;3.50;2.42;;;;;;;;;;4961150;28;20026;-83
2021/06/25 08:28:03;;;;;;;4.70;2.95;;;;;;;;;;4965313;28;20101;-85
2021/06/25 08:30:49;;;;;;;3.15;2.85;;;;;;;;;;4953696;28;20110;-85
2021/06/25 08:33:34;;;;;;;3.28;2.78;;;;;;;;;;4972818;28;20472;-84
2021/06/25 08:36:19;;;;;;;5.85;3.35;;;;;;;;;;4961419;28;20027;-85
2021/06/25 08:39:05;;;;;;;4.20;3.13;;;;;;;;;;4965227;28;20392;-84
2021/06/25 08:41:51;;;;;;;6.22;3.78;;;;;;;;;;4968925;28;20030;-85
2021/06/25 08:44:38;;;;;;;27.75;24.92;;;;;;;;;;4963575;28;20037;-86
2021/06/25 08:47:27;;;;;;;7.35;4.13;;;;;;;;;;4964272;28;20030;-84
2021/06/25 08:50:13;;;;;;;4.80;2.85;;;;;;;;;;4972470;28;20504;-83
2021/06/25 08:52:59;;;;;;;3.30;2.78;;;;;;;;;;4968420;28;20109;-88
2021/06/25 08:55:44;;;;;;;3.70;3.00;;;;;;;;;;4982940;28;20379;-87
2021/06/25 08:58:30;;;;;;;4.40;3.38;;;;;;;;;;4974546;28;20034;-83
2021/06/25 09:01:16;;;;;;;3.92;3.13;;;;;;;;;;4975187;28;20015;-82
2021/06/25 09:04:01;;;;;;;3.25;2.88;;;;;;;;;;4962782;28;20492;-83
2021/06/25 09:06:53;;;;;;;4.47;3.08;;;;;;;;;;4966358;28;20129;-82
2021/06/25 09:09:39;;;;;;;3.45;3.00;;;;;;;;;;4967694;28;20081;-84
2021/06/25 09:12:25;;;;;;;8.05;6.78;;;;;;;;;;4958866;28;20631;-86
2021/06/25 09:15:13;;;;;;;10.48;8.18;;;;;;;;;;4985043;28;20560;-85
2021/06/25 09:18:05;;;;;;;8.93;5.00;;;;;;;;;;4965245;28;20384;-81
2021/06/25 09:20:52;;;;;;;3.88;3.42;;;;;;;;;;4970543;28;20030;-82
2021/06/25 09:23:39;;;;;;;7.30;3.70;;;;;;;;;;4963896;28;20112;-81
2021/06/25 09:26:29;;;;;;;4.45;4.05;;;;;;;;;;4967652;28;20446;-82
2021/06/25 09:29:16;;;;;;;5.22;3.70;;;;;;;;;;4953539;28;20041;-82
2021/06/25 09:32:01;;;;;;;3.70;3.30;;;;;;;;;;4970704;28;20506;-82
2021/06/25 09:34:48;;;;;;;5.18;4.28;;;;;;;;;;4965832;28;20050;-83
2021/06/25 09:37:39;;;;;;;4.07;3.50;;;;;;;;;;4960831;28;20037;-80
2021/06/25 09:40:34;;;;;;;4.25;3.65;;;;;;;;;;4960140;28;20038;-81
2021/06/25 09:43:20;;;;;;;6.43;3.95;;;;;;;;;;4961181;28;20133;-80
2021/06/25 09:46:05;;;;;;;6.10;4.18;;;;;;;;;;4972844;28;20153;-81
2021/06/25 09:48:55;;;;;;;3.75;3.28;;;;;;;;;;4962997;28;20121;-83
2021/06/25 09:51:40;;;;;;;;;;;;;;;;;;4962005;28;20027;-82
2021/06/25 09:54:26;;;;;;;6.55;3.90;;;;;;;;;;4959842;28;19914;-80
2021/06/25 09:57:14;;;;;;;4.47;3.78;;;;;;;;;;4962941;28;20042;-81
2021/06/25 10:00:09;;;;;;;4.55;3.70;;;;;;;;;;4966146;28;20393;-80
2021/06/25 10:02:57;;;;;;;7.00;4.15;;;;;;;;;;4962631;28;20027;-84
2021/06/25 10:05:43;;;;;;;5.80;3.97;;;;;;;;;;4973027;28;20050;-82
2021/06/25 10:08:28;;;;;;;6.07;4.07;;;;;;;;;;4980887;28;20030;-81
2021/06/25 10:11:14;;;;;;;5.38;4.28;;;;;;;;;;4981704;28;20472;-83
2021/06/25 10:14:00;;;;;;;7.70;6.47;;;;;;;;;;4983160;28;20034;-84
2021/06/25 10:16:47;;;;;;;5.28;4.78;;;;;;;;;;4988758;28;20029;-91
2021/06/25 10:19:33;;;;;;;7.72;4.70;;;;;;;;;;4979999;28;20128;-87
2021/06/25 10:22:24;;;;;;;7.47;5.72;;;;;;;;;;4985624;28;20029;-86
2021/06/25 10:25:10;;;;;;;6.57;5.20;;;;;;;;;;4976283;28;20026;-87
2021/06/25 10:27:55;;;;;;;7.50;5.53;;;;;;;;;;4990678;28;20101;-87
2021/06/25 10:30:41;;;;;;;8.23;5.60;;;;;;;;;;4989282;28;20101;-87
2021/06/25 10:33:27;;;;;;;7.82;5.35;;;;;;;;;;4994952;28;20033;-88
2021/06/25 10:36:14;;;;;;;7.03;5.55;;;;;;;;;;5000935;28;20033;-95
2021/06/25 11:00:59;;;;;;;6.13;4.90;;;;;;;;;;5035720;28;20068;-91
2021/06/25 11:03:48;;;;;;;7.85;4.90;;;;;;;;;;5023307;28;20057;-92
2021/06/25 11:12:10;;;;;;;7.50;5.10;;;;;;;;;;5128611;23;20053;-92
2021/06/25 11:15:05;;;;;;;6.80;5.13;;;;;;;;;;4973163;28;20445;-88
2021/06/25 11:17:56;;;;;;;8.68;5.32;;;;;;;;;;5010516;28;20041;-88
2021/06/25 11:20:54;;;;;;;6.32;5.18;;;;;;;;;;5015786;28;20057;-90
2021/06/25 11:26:55;;;;;;;7.20;5.88;;;;;;;;;;5006474;28;20034;-89
2021/06/25 11:29:44;;;;;;;8.25;6.30;;;;;;;;;;5027029;28;20017;-88
2021/06/25 11:32:30;;;;;;;8.13;6.78;;;;;;;;;;5002583;28;20024;-89
2021/06/25 11:35:35;;;;;;;11.75;7.72;;;;;;;;;;5009971;28;20037;-89
2021/06/25 11:38:39;;;;;;;8.35;6.70;;;;;;;;;;5013656;28;20108;-87
2021/06/25 11:41:29;;;;;;;11.88;8.90;;;;;;;;;;5006758;28;20479;-86
2021/06/25 11:44:16;;;;;;;11.93;9.55;;;;;;;;;;5007400;28;20037;-86
2021/06/25 11:47:09;;;;;;;11.23;9.10;;;;;;;;;;5004405;28;20361;-87
2021/06/25 11:52:41;;;;;;;11.77;9.13;;;;;;;;;;5011315;28;20105;-86
2021/06/25 11:55:26;;;;;;;11.38;8.30;;;;;;;;;;5008062;28;20029;-89
2021/06/25 11:58:17;;;;;;;10.15;7.78;;;;;;;;;;5021106;28;20400;-87
2021/06/25 12:01:03;;;;;;;9.68;6.55;;;;;;;;;;5005973;28;20031;-88
2021/06/25 12:03:48;;;;;;;9.98;6.88;;;;;;;;;;5011775;28;20013;-88
2021/06/25 12:06:46;;;;;;;7.68;6.30;;;;;;;;;;4994734;28;20034;-85
2021/06/25 12:09:38;;;;;;;10.30;6.68;;;;;;;;;;5003761;28;20025;-85
2021/06/25 12:12:28;;;;;;;8.07;6.32;;;;;;;;;;4999004;28;20085;-86
2021/06/25 12:15:14;;;;;;;8.15;5.57;;;;;;;;;;4992338;28;20211;-87
2021/06/25 12:17:59;;;;;;;8.45;6.55;;;;;;;;;;4980372;28;20041;-87
2021/06/25 12:20:44;;;;;;;8.70;6.43;;;;;;;;;;4995302;28;20030;-87
2021/06/25 12:23:30;;;;;;;8.70;6.20;;;;;;;;;;4993786;28;20431;-87
2021/06/25 12:26:18;;;;;;;7.30;5.53;;;;;;;;;;4990638;28;20033;-86
2021/06/25 12:29:03;;;;;;;7.97;5.50;;;;;;;;;;4996903;28;20033;-85
2021/06/25 12:31:49;;;;;;;9.73;5.53;;;;;;;;;;4992164;28;20041;-85
2021/06/25 12:34:34;;;;;;;12.48;9.00;;;;;;;;;;4992685;28;20045;-86
2021/06/25 12:37:20;;;;;;;8.38;6.22;;;;;;;;;;4991842;28;20033;-87
2021/06/25 12:40:06;;;;;;;6.00;4.53;;;;;;;;;;4985353;28;20116;-88
2021/06/25 12:43:12;;;;;;;5.55;4.32;;;;;;;;;;4978537;28;20022;-89
2021/06/25 12:46:01;;;;;;;6.97;4.55;;;;;;;;;;4978606;28;20053;-86
2021/06/25 12:48:47;;;;;;;7.53;4.85;;;;;;;;;;4989853;28;20109;-88
2021/06/25 12:51:53;;;;;;;5.40;4.70;;;;;;;;;;4992476;28;20044;-90
2021/06/25 12:54:39;;;;;;;6.93;5.28;;;;;;;;;;4995753;28;20029;-87
2021/06/25 12:57:24;;;;;;;8.00;4.97;;;;;;;;;;4995263;28;20545;-88
2021/06/25 13:00:13;;;;;;;6.25;5.38;;;;;;;;;;4995202;28;20026;-89
2021/06/25 13:14:48;;;;;;;7.18;5.43;;;;;;;;;;5570162;23;20047;-89
2021/06/25 13:17:35;;;;;;;6.72;5.32;;;;;;;;;;4941230;28;20039;-89
2021/06/25 13:20:29;;;;;;;6.22;5.10;;;;;;;;;;4976115;28;20122;-90
2021/06/25 13:23:32;;;;;;;5.95;5.00;;;;;;;;;;4975066;28;20023;-91
2021/06/25 13:26:54;;;;;;;8.13;5.57;;;;;;;;;;4959817;28;20031;-90
2021/06/25 13:29:50;;;;;;;6.82;4.63;;;;;;;;;;4954902;28;20074;-93
2021/06/25 13:32:35;;;;;;;9.35;6.25;;;;;;;;;;4955696;28;20022;-89
2021/06/25 13:35:22;;;;;;;6.85;5.40;;;;;;;;;;4962082;28;20039;-85
2021/06/25 13:38:21;;;;;;;5.63;4.25;;;;;;;;;;4969876;28;20089;-86
2021/06/25 13:41:24;;;;;;;7.13;5.18;;;;;;;;;;4960404;28;20034;-87
2021/06/25 13:44:24;;;;;;;6.47;4.85;;;;;;;;;;4963378;28;20034;-85
2021/06/25 13:47:13;;;;;;;7.13;5.03;;;;;;;;;;4962618;28;20035;-88
2021/06/25 13:49:58;;;;;;;6.20;5.07;;;;;;;;;;4963751;28;20114;-86
2021/06/25 13:52:52;;;;;;;6.78;4.85;;;;;;;;;;4982218;28;20038;-90
2021/06/25 13:55:38;;;;;;;5.63;4.53;;;;;;;;;;4950580;28;20101;-87
2021/06/25 13:58:36;;;;;;;;;;;;;;;;;;;;;
2021/06/25 14:01:32;;;;;;;7.35;5.05;;;;;;;;;;4962352;28;20042;-88
2021/06/25 14:04:19;;;;;;;6.07;4.82;;;;;;;;;;4980147;28;20033;-87
2021/06/25 14:07:04;;;;;;;7.43;5.10;;;;;;;;;;4962461;28;20031;-89
2021/06/25 14:09:52;;;;;;;5.85;4.88;;;;;;;;;;4972639;28;20041;-87
2021/06/25 14:12:43;;;;;;;6.05;4.65;;;;;;;;;;4965860;28;20082;-87
2021/06/25 14:15:46;;;;;;;7.22;5.68;;;;;;;;;;4967477;28;20047;-93
2021/06/25 14:18:35;;;;;;;11.80;8.63;;;;;;;;;;4959511;28;20031;-88
2021/06/25 14:21:22;;;;;;;9.10;5.38;;;;;;;;;;4968544;28;20033;-89
2021/06/25 14:24:08;;;;;;;6.82;5.70;;;;;;;;;;4964724;28;20225;-87
2021/06/25 14:26:56;;;;;;;9.10;5.38;;;;;;;;;;4965257;28;20027;-88
2021/06/25 14:29:42;;;;;;;9.00;5.53;;;;;;;;;;4953802;28;20030;-88
2021/06/25 14:32:29;;;;;;;5.10;4.22;;;;;;;;;;4956018;28;20038;-87
2021/06/25 14:35:15;;;;;;;5.85;4.85;;;;;;;;;;4961833;28;20035;-86
2021/06/25 14:38:01;;;;;;;7.53;5.10;;;;;;;;;;4966098;28;20031;-89
2021/06/25 14:40:47;;;;;;;5.18;4.32;;;;;;;;;;4971152;28;20030;-90
2021/06/25 14:43:42;;;;;;;10.63;7.13;;;;;;;;;;4950904;28;20025;-87
2021/06/25 14:46:36;;;;;;;12.23;9.73;;;;;;;;;;4969961;28;20410;-88
2021/06/25 14:49:21;;;;;;;6.38;4.47;;;;;;;;;;4970088;28;20382;-86
2021/06/25 14:52:06;;;;;;;7.07;4.65;;;;;;;;;;4963315;28;20121;-89
2021/06/25 14:54:52;;;;;;;6.70;4.85;;;;;;;;;;4952815;28;20081;-91
2021/06/25 14:57:37;;;;;;;6.47;4.75;;;;;;;;;;4965594;28;20042;-89
2021/06/25 15:00:22;;;;;;;7.88;4.90;;;;;;;;;;4970026;28;20044;-88
2021/06/25 15:03:08;;;;;;;6.47;4.40;;;;;;;;;;4965692;28;20025;-89
2021/06/25 15:05:54;;;;;;;5.72;4.32;;;;;;;;;;4966797;28;20130;-90
2021/06/25 15:08:39;;;;;;;5.68;3.72;;;;;;;;;;4968720;28;20027;-90
2021/06/25 15:11:24;;;;;;;4.90;3.80;;;;;;;;;;4972694;28;20022;-89
2021/06/25 15:14:09;;;;;;;5.15;3.90;;;;;;;;;;4959147;28;20035;-88
2021/06/25 15:16:55;;;;;;;10.65;4.43;;;;;;;;;;4957962;28;20059;-88
2021/06/25 15:19:40;;;;;;;6.97;4.70;;;;;;;;;;4964476;28;20027;-87
2021/06/25 15:22:25;;;;;;;7.35;5.65;;;;;;;;;;4966076;28;20451;-88
2021/06/25 15:25:11;;;;;;;12.40;8.82;;;;;;;;;;4963215;28;20035;-88
2021/06/25 15:27:56;;;;;;;8.40;5.85;;;;;;;;;;4969987;28;20023;-89
2021/06/25 15:30:41;;;;;;;6.78;5.15;;;;;;;;;;4964733;28;20114;-88
2021/06/25 15:33:27;;;;;;;7.88;5.85;;;;;;;;;;4974303;28;20046;-87
2021/06/25 15:36:12;;;;;;;8.00;5.40;;;;;;;;;;4964290;28;20074;-88
2021/06/25 15:38:57;;;;;;;6.22;5.25;;;;;;;;;;4973143;28;20022;-87
2021/06/25 15:41:42;;;;;;;6.35;5.00;;;;;;;;;;4968187;28;20042;-88
2021/06/25 15:44:28;;;;;;;7.40;4.82;;;;;;;;;;4964943;28;20034;-86
2021/06/25 15:47:13;;;;;;;6.30;4.63;;;;;;;;;;4964367;28;20034;-88
2021/06/25 15:49:58;;;;;;;7.60;5.15;;;;;;;;;;4957343;28;20022;-89
2021/06/25 15:52:43;;;;;;;7.53;4.95;;;;;;;;;;4964654;28;20125;-87
2021/06/25 15:55:29;;;;;;;6.78;5.00;;;;;;;;;;4967068;28;21319;-87
2021/06/25 15:58:18;;;;;;;6.45;4.30;;;;;;;;;;4955246;28;20019;-87
2021/06/25 16:01:03;;;;;;;5.85;4.57;;;;;;;;;;4960345;28;20493;-86
2021/06/25 16:03:48;;;;;;;6.95;4.85;;;;;;;;;;4972840;28;20058;-87
2021/06/25 16:06:33;;;;;;;5.28;4.43;;;;;;;;;;4956179;28;20027;-88
2021/06/25 16:09:37;;;;;;;8.10;4.70;;;;;;;;;;4958848;28;20101;-88
2021/06/25 16:12:23;;;;;;;7.18;4.70;;;;;;;;;;4965975;28;20141;-90
2021/06/25 16:15:09;;;;;;;6.53;4.85;;;;;;;;;;4969878;28;20049;-88
2021/06/25 16:17:54;;;;;;;6.93;4.45;;;;;;;;;;4963383;28;20042;-89
2021/06/25 16:20:44;;;;;;;7.57;4.75;;;;;;;;;;4963542;28;20027;-88
2021/06/25 16:23:30;;;;;;;6.38;4.70;;;;;;;;;;4967705;28;20073;-89
2021/06/25 16:26:17;;;;;;;9.73;4.57;;;;;;;;;;4966894;28;20031;-89
2021/06/25 16:29:02;;;;;;;6.85;5.03;;;;;;;;;;4966426;28;20015;-90
2021/06/25 16:31:48;;;;;;;8.93;5.72;;;;;;;;;;4968739;28;20027;-89
2021/06/25 16:34:33;;;;;;;7.88;5.88;;;;;;;;;;4971444;28;20118;-89
2021/06/25 16:37:18;;;;;;;6.72;4.93;;;;;;;;;;4965960;28;20106;-89
2021/06/25 16:40:04;;;;;;;8.60;4.50;;;;;;;;;;4970592;28;20023;-88
2021/06/25 16:42:50;;;;;;;10.95;4.85;;;;;;;;;;4967346;28;20042;-91
2021/06/25 16:45:35;;;;;;;11.45;5.80;;;;;;;;;;4964263;28;20023;-89
2021/06/25 16:48:21;;;;;;;9.32;5.95;;;;;;;;;;4966309;28;20094;-89
2021/06/25 16:51:07;;;;;;;7.85;5.47;;;;;;;;;;4963802;28;20114;-90
2021/06/25 16:54:00;;;;;;;8.88;5.00;;;;;;;;;;4956825;28;20019;-89
2021/06/25 16:56:48;;;;;;;6.80;5.15;;;;;;;;;;4948427;28;20734;-90
2021/06/25 16:59:51;;;;;;;7.45;5.85;;;;;;;;;;4966568;28;20062;-89
2021/06/25 17:02:54;;;;;;;6.88;5.18;;;;;;;;;;4960755;28;20396;-88
2021/06/25 17:05:40;;;;;;;5.88;5.07;;;;;;;;;;4952982;28;20591;-89
2021/06/25 17:08:25;;;;;;;7.53;5.28;;;;;;;;;;4963776;28;20023;-90
2021/06/25 17:11:11;;;;;;;7.55;5.15;;;;;;;;;;4962979;28;20045;-88
2021/06/25 17:13:57;;;;;;;7.82;5.32;;;;;;;;;;4960384;28;20035;-89
2021/06/25 17:16:42;;;;;;;9.15;5.70;;;;;;;;;;4965784;28;20140;-89
2021/06/25 17:19:27;;;;;;;8.63;6.18;;;;;;;;;;4959805;28;20211;-89
2021/06/25 17:22:13;;;;;;;8.40;5.32;;;;;;;;;;4971104;28;20422;-90
2021/06/25 17:25:16;;;;;;;9.27;5.75;;;;;;;;;;4970903;28;20027;-89
2021/06/25 17:28:04;;;;;;;9.57;6.35;;;;;;;;;;4970650;28;20022;-89
2021/06/25 17:30:53;;;;;;;8.90;6.55;;;;;;;;;;4974290;28;20034;-89
2021/06/25 17:33:38;;;;;;;8.20;6.10;;;;;;;;;;4966541;28;20110;-89
2021/06/25 17:36:24;;;;;;;9.45;6.10;;;;;;;;;;4969140;28;20270;-88
2021/06/25 17:39:09;;;;;;;7.57;6.03;;;;;;;;;;4967471;28;20027;-89
2021/06/25 17:41:54;;;;;;;11.07;6.47;;;;;;;;;;4955391;28;20038;-90